sensor_id;sensor_type;location;lat;lon;timestamp;P1;durP1;ratioP1;P2;durP2;ratioP2
60169;SDS011;46042;49.444;6.862;2022-11-24T00:01:03;7.25;;;2.38;;
60169;SDS011;46042;49.444;6.862;2022-11-24T00:03:32;17.95;;;2.53;;
60169;SDS011;46042;49.444;6.862;2022-11-24T00:06:05;15.35;;;3.10;;
60169;SDS011;46042;49.444;6.862;2022-11-24T00:08:36;11.52;;;2.80;;
60169;SDS011;46042;49.444;6.862;2022-11-24T00:11:04;15.35;;;3.67;;
60169;SDS011;46042;49.444;6.862;2022-11-24T00:13:33;9.73;;;2.53;;
60169;SDS011;46042;49.444;6.862;2022-11-24T00:16:06;14.38;;;3.20;;
60169;SDS011;46042;49.444;6.862;2022-11-24T00:18:34;12.77;;;2.72;;
60169;SDS011;46042;49.444;6.862;2022-11-24T00:21:00;8.45;;;2.65;;
60169;SDS011;46042;49.444;6.862;2022-11-24T00:23:27;11.43;;;2.25;;
60169;SDS011;46042;49.444;6.862;2022-11-24T00:25:54;13.93;;;2.70;;
60169;SDS011;46042;49.444;6.862;2022-11-24T00:28:20;9.93;;;2.58;;
60169;SDS011;46042;49.444;6.862;2022-11-24T00:30:47;6.32;;;2.20;;
60169;SDS011;46042;49.444;6.862;2022-11-24T00:33:14;8.00;;;2.50;;
60169;SDS011;46042;49.444;6.862;2022-11-24T00:35:40;11.70;;;3.13;;
60169;SDS011;46042;49.444;6.862;2022-11-24T00:38:07;12.45;;;2.75;;
60169;SDS011;46042;49.444;6.862;2022-11-24T00:40:33;11.10;;;3.22;;
60169;SDS011;46042;49.444;6.862;2022-11-24T00:43:00;7.65;;;3.50;;
60169;SDS011;46042;49.444;6.862;2022-11-24T00:45:27;9.57;;;3.03;;
60169;SDS011;46042;49.444;6.862;2022-11-24T00:47:53;11.32;;;3.42;;
60169;SDS011;46042;49.444;6.862;2022-11-24T00:50:20;14.23;;;3.60;;
60169;SDS011;46042;49.444;6.862;2022-11-24T00:52:46;13.20;;;3.58;;
60169;SDS011;46042;49.444;6.862;2022-11-24T00:55:13;7.78;;;3.10;;
60169;SDS011;46042;49.444;6.862;2022-11-24T00:57:39;12.90;;;2.88;;
60169;SDS011;46042;49.444;6.862;2022-11-24T01:00:06;18.30;;;3.00;;
60169;SDS011;46042;49.444;6.862;2022-11-24T01:02:33;20.65;;;3.30;;
60169;SDS011;46042;49.444;6.862;2022-11-24T01:05:00;15.57;;;2.90;;
60169;SDS011;46042;49.444;6.862;2022-11-24T01:07:28;7.95;;;2.67;;
60169;SDS011;46042;49.444;6.862;2022-11-24T01:09:56;11.02;;;3.17;;
60169;SDS011;46042;49.444;6.862;2022-11-24T01:12:22;8.05;;;2.97;;
60169;SDS011;46042;49.444;6.862;2022-11-24T01:14:49;16.52;;;3.92;;
60169;SDS011;46042;49.444;6.862;2022-11-24T01:17:15;15.60;;;3.10;;
60169;SDS011;46042;49.444;6.862;2022-11-24T01:19:42;8.25;;;2.38;;
60169;SDS011;46042;49.444;6.862;2022-11-24T01:22:09;14.50;;;3.45;;
60169;SDS011;46042;49.444;6.862;2022-11-24T01:24:35;9.05;;;3.88;;
60169;SDS011;46042;49.444;6.862;2022-11-24T01:27:02;15.45;;;3.10;;
60169;SDS011;46042;49.444;6.862;2022-11-24T01:29:28;17.17;;;3.03;;
60169;SDS011;46042;49.444;6.862;2022-11-24T01:31:55;17.20;;;3.30;;
60169;SDS011;46042;49.444;6.862;2022-11-24T01:34:22;10.10;;;2.53;;
60169;SDS011;46042;49.444;6.862;2022-11-24T01:36:48;11.63;;;2.58;;
60169;SDS011;46042;49.444;6.862;2022-11-24T01:39:15;10.27;;;2.47;;
60169;SDS011;46042;49.444;6.862;2022-11-24T01:41:42;11.68;;;2.42;;
60169;SDS011;46042;49.444;6.862;2022-11-24T01:44:19;8.60;;;2.65;;
60169;SDS011;46042;49.444;6.862;2022-11-24T01:46:48;14.80;;;3.50;;
60169;SDS011;46042;49.444;6.862;2022-11-24T01:49:31;14.27;;;2.53;;
60169;SDS011;46042;49.444;6.862;2022-11-24T01:52:21;12.20;;;2.70;;
60169;SDS011;46042;49.444;6.862;2022-11-24T01:54:54;22.65;;;3.65;;
60169;SDS011;46042;49.444;6.862;2022-11-24T01:57:26;21.60;;;3.33;;
60169;SDS011;46042;49.444;6.862;2022-11-24T02:00:17;14.18;;;3.05;;
60169;SDS011;46042;49.444;6.862;2022-11-24T02:02:44;10.05;;;3.72;;
60169;SDS011;46042;49.444;6.862;2022-11-24T02:05:17;30.42;;;4.53;;
60169;SDS011;46042;49.444;6.862;2022-11-24T02:07:48;29.13;;;4.05;;
60169;SDS011;46042;49.444;6.862;2022-11-24T02:10:18;13.43;;;2.63;;
60169;SDS011;46042;49.444;6.862;2022-11-24T02:12:46;17.25;;;3.42;;
60169;SDS011;46042;49.444;6.862;2022-11-24T02:15:15;18.73;;;3.47;;
60169;SDS011;46042;49.444;6.862;2022-11-24T02:17:43;16.80;;;4.40;;
60169;SDS011;46042;49.444;6.862;2022-11-24T02:20:11;18.13;;;4.47;;
60169;SDS011;46042;49.444;6.862;2022-11-24T02:30:37;14.20;;;4.55;;
60169;SDS011;46042;49.444;6.862;2022-11-24T02:33:04;22.60;;;3.42;;
60169;SDS011;46042;49.444;6.862;2022-11-24T02:35:31;19.10;;;5.60;;
60169;SDS011;46042;49.444;6.862;2022-11-24T02:37:58;9.55;;;3.00;;
60169;SDS011;46042;49.444;6.862;2022-11-24T02:40:25;18.88;;;3.78;;
60169;SDS011;46042;49.444;6.862;2022-11-24T02:42:57;20.25;;;3.42;;
60169;SDS011;46042;49.444;6.862;2022-11-24T02:45:30;10.70;;;2.70;;
60169;SDS011;46042;49.444;6.862;2022-11-24T02:47:57;14.07;;;2.95;;
60169;SDS011;46042;49.444;6.862;2022-11-24T02:50:23;14.15;;;3.17;;
60169;SDS011;46042;49.444;6.862;2022-11-24T02:52:50;14.80;;;3.03;;
60169;SDS011;46042;49.444;6.862;2022-11-24T02:55:17;12.77;;;3.35;;
60169;SDS011;46042;49.444;6.862;2022-11-24T02:57:43;25.92;;;3.22;;
60169;SDS011;46042;49.444;6.862;2022-11-24T03:00:10;14.85;;;3.33;;
60169;SDS011;46042;49.444;6.862;2022-11-24T03:02:37;19.13;;;4.15;;
60169;SDS011;46042;49.444;6.862;2022-11-24T03:05:05;18.35;;;3.63;;
60169;SDS011;46042;49.444;6.862;2022-11-24T03:07:32;17.63;;;3.45;;
60169;SDS011;46042;49.444;6.862;2022-11-24T03:09:59;18.60;;;3.30;;
60169;SDS011;46042;49.444;6.862;2022-11-24T03:12:26;25.33;;;3.65;;
60169;SDS011;46042;49.444;6.862;2022-11-24T03:14:52;30.13;;;4.15;;
60169;SDS011;46042;49.444;6.862;2022-11-24T03:17:19;13.48;;;3.42;;
60169;SDS011;46042;49.444;6.862;2022-11-24T03:19:46;21.60;;;2.90;;
60169;SDS011;46042;49.444;6.862;2022-11-24T03:22:12;21.23;;;3.78;;
60169;SDS011;46042;49.444;6.862;2022-11-24T03:24:39;15.02;;;3.60;;
60169;SDS011;46042;49.444;6.862;2022-11-24T03:27:06;10.68;;;2.40;;
60169;SDS011;46042;49.444;6.862;2022-11-24T03:29:32;12.98;;;3.28;;
60169;SDS011;46042;49.444;6.862;2022-11-24T03:31:59;15.52;;;3.35;;
60169;SDS011;46042;49.444;6.862;2022-11-24T03:34:26;19.30;;;3.25;;
60169;SDS011;46042;49.444;6.862;2022-11-24T03:36:53;23.00;;;3.30;;
60169;SDS011;46042;49.444;6.862;2022-11-24T03:39:19;17.02;;;3.67;;
60169;SDS011;46042;49.444;6.862;2022-11-24T03:41:46;22.20;;;3.72;;
60169;SDS011;46042;49.444;6.862;2022-11-24T03:44:13;28.52;;;4.38;;
60169;SDS011;46042;49.444;6.862;2022-11-24T03:46:39;21.60;;;4.20;;
60169;SDS011;46042;49.444;6.862;2022-11-24T03:49:06;16.73;;;3.78;;
60169;SDS011;46042;49.444;6.862;2022-11-24T03:51:32;14.07;;;4.30;;
60169;SDS011;46042;49.444;6.862;2022-11-24T03:53:59;17.02;;;3.15;;
60169;SDS011;46042;49.444;6.862;2022-11-24T03:56:26;18.92;;;3.92;;
60169;SDS011;46042;49.444;6.862;2022-11-24T03:58:53;18.45;;;2.97;;
60169;SDS011;46042;49.444;6.862;2022-11-24T04:01:19;26.73;;;4.03;;
60169;SDS011;46042;49.444;6.862;2022-11-24T04:03:46;11.82;;;3.08;;
60169;SDS011;46042;49.444;6.862;2022-11-24T04:06:13;17.73;;;3.95;;
60169;SDS011;46042;49.444;6.862;2022-11-24T04:08:39;23.42;;;4.55;;
60169;SDS011;46042;49.444;6.862;2022-11-24T04:11:06;21.33;;;3.88;;
60169;SDS011;46042;49.444;6.862;2022-11-24T04:13:32;19.30;;;3.42;;
60169;SDS011;46042;49.444;6.862;2022-11-24T04:15:59;13.02;;;3.60;;
60169;SDS011;46042;49.444;6.862;2022-11-24T04:18:30;19.17;;;4.15;;
60169;SDS011;46042;49.444;6.862;2022-11-24T04:20:56;38.80;;;5.47;;
60169;SDS011;46042;49.444;6.862;2022-11-24T04:23:23;24.67;;;4.18;;
60169;SDS011;46042;49.444;6.862;2022-11-24T04:25:50;22.67;;;3.53;;
60169;SDS011;46042;49.444;6.862;2022-11-24T04:28:16;19.60;;;2.95;;
60169;SDS011;46042;49.444;6.862;2022-11-24T04:30:43;19.25;;;2.95;;
60169;SDS011;46042;49.444;6.862;2022-11-24T04:33:10;16.15;;;3.60;;
60169;SDS011;46042;49.444;6.862;2022-11-24T04:35:37;26.33;;;4.28;;
60169;SDS011;46042;49.444;6.862;2022-11-24T04:38:04;17.42;;;3.88;;
60169;SDS011;46042;49.444;6.862;2022-11-24T04:40:30;41.42;;;5.22;;
60169;SDS011;46042;49.444;6.862;2022-11-24T04:42:57;26.70;;;3.58;;
60169;SDS011;46042;49.444;6.862;2022-11-24T04:45:23;23.58;;;5.20;;
60169;SDS011;46042;49.444;6.862;2022-11-24T04:47:50;25.55;;;4.75;;
60169;SDS011;46042;49.444;6.862;2022-11-24T04:50:17;11.57;;;3.83;;
60169;SDS011;46042;49.444;6.862;2022-11-24T04:52:43;14.43;;;3.83;;
60169;SDS011;46042;49.444;6.862;2022-11-24T04:55:10;12.52;;;2.90;;
60169;SDS011;46042;49.444;6.862;2022-11-24T04:57:37;16.48;;;3.25;;
60169;SDS011;46042;49.444;6.862;2022-11-24T05:00:04;9.23;;;2.25;;
60169;SDS011;46042;49.444;6.862;2022-11-24T05:02:31;15.88;;;4.00;;
60169;SDS011;46042;49.444;6.862;2022-11-24T05:04:58;10.68;;;3.03;;
60169;SDS011;46042;49.444;6.862;2022-11-24T05:07:24;12.23;;;3.05;;
60169;SDS011;46042;49.444;6.862;2022-11-24T05:09:51;20.80;;;3.58;;
60169;SDS011;46042;49.444;6.862;2022-11-24T05:12:36;16.05;;;3.65;;
60169;SDS011;46042;49.444;6.862;2022-11-24T05:15:04;26.20;;;3.88;;
60169;SDS011;46042;49.444;6.862;2022-11-24T05:17:32;11.63;;;3.33;;
60169;SDS011;46042;49.444;6.862;2022-11-24T05:20:00;19.77;;;3.58;;
60169;SDS011;46042;49.444;6.862;2022-11-24T05:22:28;15.30;;;3.22;;
60169;SDS011;46042;49.444;6.862;2022-11-24T05:24:54;11.77;;;2.75;;
60169;SDS011;46042;49.444;6.862;2022-11-24T05:27:21;16.73;;;3.88;;
60169;SDS011;46042;49.444;6.862;2022-11-24T05:29:48;17.60;;;3.28;;
60169;SDS011;46042;49.444;6.862;2022-11-24T05:32:15;15.38;;;3.22;;
60169;SDS011;46042;49.444;6.862;2022-11-24T05:34:41;7.82;;;2.35;;
60169;SDS011;46042;49.444;6.862;2022-11-24T05:37:08;12.60;;;2.45;;
60169;SDS011;46042;49.444;6.862;2022-11-24T05:39:35;18.75;;;3.47;;
60169;SDS011;46042;49.444;6.862;2022-11-24T05:42:02;15.10;;;3.08;;
60169;SDS011;46042;49.444;6.862;2022-11-24T05:44:51;18.15;;;3.17;;
60169;SDS011;46042;49.444;6.862;2022-11-24T05:47:18;22.45;;;3.60;;
60169;SDS011;46042;49.444;6.862;2022-11-24T05:49:44;16.85;;;2.97;;
60169;SDS011;46042;49.444;6.862;2022-11-24T05:52:11;18.15;;;3.42;;
60169;SDS011;46042;49.444;6.862;2022-11-24T05:54:38;7.22;;;2.58;;
60169;SDS011;46042;49.444;6.862;2022-11-24T05:57:04;24.15;;;3.15;;
60169;SDS011;46042;49.444;6.862;2022-11-24T05:59:31;16.05;;;3.13;;
60169;SDS011;46042;49.444;6.862;2022-11-24T06:01:59;23.08;;;3.97;;
60169;SDS011;46042;49.444;6.862;2022-11-24T06:04:25;24.42;;;4.30;;
60169;SDS011;46042;49.444;6.862;2022-11-24T06:06:52;16.23;;;3.58;;
60169;SDS011;46042;49.444;6.862;2022-11-24T06:09:19;10.80;;;3.58;;
60169;SDS011;46042;49.444;6.862;2022-11-24T06:11:46;13.10;;;2.78;;
60169;SDS011;46042;49.444;6.862;2022-11-24T06:14:13;12.27;;;2.88;;
60169;SDS011;46042;49.444;6.862;2022-11-24T06:16:40;24.15;;;4.00;;
60169;SDS011;46042;49.444;6.862;2022-11-24T06:19:08;24.98;;;3.47;;
60169;SDS011;46042;49.444;6.862;2022-11-24T06:21:35;31.90;;;4.38;;
60169;SDS011;46042;49.444;6.862;2022-11-24T06:24:02;21.00;;;3.75;;
60169;SDS011;46042;49.444;6.862;2022-11-24T06:26:30;18.05;;;3.85;;
60169;SDS011;46042;49.444;6.862;2022-11-24T06:28:56;13.00;;;3.08;;
60169;SDS011;46042;49.444;6.862;2022-11-24T06:31:23;14.88;;;3.00;;
60169;SDS011;46042;49.444;6.862;2022-11-24T06:33:50;14.95;;;2.80;;
60169;SDS011;46042;49.444;6.862;2022-11-24T06:36:16;20.67;;;4.25;;
60169;SDS011;46042;49.444;6.862;2022-11-24T06:38:43;24.75;;;4.00;;
60169;SDS011;46042;49.444;6.862;2022-11-24T06:41:11;13.05;;;3.33;;
60169;SDS011;46042;49.444;6.862;2022-11-24T06:43:39;18.50;;;3.25;;
60169;SDS011;46042;49.444;6.862;2022-11-24T06:46:05;18.70;;;3.22;;
60169;SDS011;46042;49.444;6.862;2022-11-24T06:48:32;19.40;;;3.70;;
60169;SDS011;46042;49.444;6.862;2022-11-24T06:51:00;14.15;;;2.97;;
60169;SDS011;46042;49.444;6.862;2022-11-24T06:53:36;13.90;;;3.20;;
60169;SDS011;46042;49.444;6.862;2022-11-24T06:56:05;21.48;;;4.00;;
60169;SDS011;46042;49.444;6.862;2022-11-24T06:58:42;16.33;;;3.20;;
60169;SDS011;46042;49.444;6.862;2022-11-24T07:01:28;17.27;;;3.53;;
60169;SDS011;46042;49.444;6.862;2022-11-24T07:03:55;21.08;;;2.83;;
60169;SDS011;46042;49.444;6.862;2022-11-24T07:06:23;25.58;;;3.65;;
60169;SDS011;46042;49.444;6.862;2022-11-24T07:08:51;11.05;;;2.67;;
60169;SDS011;46042;49.444;6.862;2022-11-24T07:11:19;14.30;;;2.85;;
60169;SDS011;46042;49.444;6.862;2022-11-24T07:13:48;15.52;;;3.15;;
60169;SDS011;46042;49.444;6.862;2022-11-24T07:16:24;11.57;;;3.33;;
60169;SDS011;46042;49.444;6.862;2022-11-24T07:18:52;16.23;;;2.85;;
60169;SDS011;46042;49.444;6.862;2022-11-24T07:21:20;16.40;;;3.15;;
60169;SDS011;46042;49.444;6.862;2022-11-24T07:23:48;13.23;;;2.45;;
60169;SDS011;46042;49.444;6.862;2022-11-24T07:26:20;18.15;;;3.63;;
60169;SDS011;46042;49.444;6.862;2022-11-24T07:28:47;13.93;;;4.00;;
60169;SDS011;46042;49.444;6.862;2022-11-24T07:31:15;20.10;;;2.90;;
60169;SDS011;46042;49.444;6.862;2022-11-24T07:33:52;8.15;;;3.05;;
60169;SDS011;46042;49.444;6.862;2022-11-24T07:36:19;18.80;;;3.65;;
60169;SDS011;46042;49.444;6.862;2022-11-24T07:38:47;10.20;;;2.75;;
60169;SDS011;46042;49.444;6.862;2022-11-24T07:41:14;19.67;;;4.38;;
60169;SDS011;46042;49.444;6.862;2022-11-24T07:43:42;14.98;;;2.85;;
60169;SDS011;46042;49.444;6.862;2022-11-24T07:46:10;16.25;;;3.03;;
60169;SDS011;46042;49.444;6.862;2022-11-24T07:48:38;17.42;;;3.40;;
60169;SDS011;46042;49.444;6.862;2022-11-24T07:51:05;14.13;;;2.75;;
60169;SDS011;46042;49.444;6.862;2022-11-24T07:53:33;15.48;;;3.20;;
60169;SDS011;46042;49.444;6.862;2022-11-24T07:56:01;19.73;;;3.70;;
60169;SDS011;46042;49.444;6.862;2022-11-24T07:58:29;16.65;;;3.72;;
60169;SDS011;46042;49.444;6.862;2022-11-24T08:00:59;16.00;;;4.57;;
60169;SDS011;46042;49.444;6.862;2022-11-24T08:03:34;17.65;;;4.20;;
60169;SDS011;46042;49.444;6.862;2022-11-24T08:06:01;19.90;;;4.55;;
60169;SDS011;46042;49.444;6.862;2022-11-24T08:08:47;27.77;;;4.20;;
60169;SDS011;46042;49.444;6.862;2022-11-24T08:11:15;15.18;;;3.55;;
60169;SDS011;46042;49.444;6.862;2022-11-24T08:13:43;10.02;;;2.72;;
60169;SDS011;46042;49.444;6.862;2022-11-24T08:16:11;13.15;;;3.30;;
60169;SDS011;46042;49.444;6.862;2022-11-24T08:18:40;16.58;;;2.38;;
60169;SDS011;46042;49.444;6.862;2022-11-24T08:21:07;10.90;;;2.85;;
60169;SDS011;46042;49.444;6.862;2022-11-24T08:26:05;21.13;;;2.92;;
60169;SDS011;46042;49.444;6.862;2022-11-24T08:28:34;20.73;;;4.20;;
60169;SDS011;46042;49.444;6.862;2022-11-24T08:31:06;24.73;;;4.05;;
60169;SDS011;46042;49.444;6.862;2022-11-24T08:33:37;22.02;;;3.75;;
60169;SDS011;46042;49.444;6.862;2022-11-24T08:36:05;20.83;;;4.15;;
60169;SDS011;46042;49.444;6.862;2022-11-24T08:38:34;14.82;;;3.25;;
60169;SDS011;46042;49.444;6.862;2022-11-24T08:41:02;13.10;;;3.35;;
60169;SDS011;46042;49.444;6.862;2022-11-24T08:43:36;20.25;;;3.45;;
60169;SDS011;46042;49.444;6.862;2022-11-24T08:46:04;18.35;;;3.65;;
60169;SDS011;46042;49.444;6.862;2022-11-24T08:48:32;19.38;;;3.67;;
60169;SDS011;46042;49.444;6.862;2022-11-24T08:51:05;22.05;;;3.47;;
60169;SDS011;46042;49.444;6.862;2022-11-24T08:53:33;17.75;;;2.97;;
60169;SDS011;46042;49.444;6.862;2022-11-24T08:56:00;23.77;;;4.38;;
60169;SDS011;46042;49.444;6.862;2022-11-24T08:58:28;11.15;;;3.13;;
60169;SDS011;46042;49.444;6.862;2022-11-24T09:00:55;20.23;;;3.33;;
60169;SDS011;46042;49.444;6.862;2022-11-24T09:03:29;11.10;;;2.75;;
60169;SDS011;46042;49.444;6.862;2022-11-24T09:05:55;14.73;;;2.67;;
60169;SDS011;46042;49.444;6.862;2022-11-24T09:08:22;15.23;;;3.92;;
60169;SDS011;46042;49.444;6.862;2022-11-24T09:10:49;10.40;;;2.67;;
60169;SDS011;46042;49.444;6.862;2022-11-24T09:13:16;9.68;;;2.70;;
60169;SDS011;46042;49.444;6.862;2022-11-24T09:15:43;15.90;;;3.75;;
60169;SDS011;46042;49.444;6.862;2022-11-24T09:18:09;12.85;;;2.80;;
60169;SDS011;46042;49.444;6.862;2022-11-24T09:20:36;11.65;;;2.60;;
60169;SDS011;46042;49.444;6.862;2022-11-24T09:23:03;13.30;;;3.78;;
60169;SDS011;46042;49.444;6.862;2022-11-24T09:25:29;13.60;;;3.17;;
60169;SDS011;46042;49.444;6.862;2022-11-24T09:27:56;11.55;;;3.33;;
60169;SDS011;46042;49.444;6.862;2022-11-24T09:30:23;13.35;;;2.78;;
60169;SDS011;46042;49.444;6.862;2022-11-24T09:32:50;19.58;;;3.35;;
60169;SDS011;46042;49.444;6.862;2022-11-24T09:35:17;12.43;;;2.45;;
60169;SDS011;46042;49.444;6.862;2022-11-24T09:37:43;14.27;;;2.90;;
60169;SDS011;46042;49.444;6.862;2022-11-24T09:40:11;17.75;;;3.72;;
60169;SDS011;46042;49.444;6.862;2022-11-24T09:42:49;19.38;;;3.63;;
60169;SDS011;46042;49.444;6.862;2022-11-24T09:45:37;14.05;;;3.22;;
60169;SDS011;46042;49.444;6.862;2022-11-24T09:48:32;10.43;;;3.28;;
60169;SDS011;46042;49.444;6.862;2022-11-24T09:51:12;11.93;;;2.88;;
60169;SDS011;46042;49.444;6.862;2022-11-24T09:56:23;10.50;;;2.85;;
60169;SDS011;46042;49.444;6.862;2022-11-24T09:59:01;11.07;;;2.60;;
60169;SDS011;46042;49.444;6.862;2022-11-24T10:01:35;16.23;;;3.05;;
60169;SDS011;46042;49.444;6.862;2022-11-24T10:06:57;11.23;;;3.30;;
60169;SDS011;46042;49.444;6.862;2022-11-24T10:09:42;17.08;;;3.25;;
60169;SDS011;46042;49.444;6.862;2022-11-24T10:26:31;22.55;;;3.40;;
60169;SDS011;46042;49.444;6.862;2022-11-24T10:31:43;13.60;;;2.85;;
60169;SDS011;46042;49.444;6.862;2022-11-24T10:34:13;10.27;;;2.53;;
60169;SDS011;46042;49.444;6.862;2022-11-24T10:44:57;15.43;;;3.00;;
60169;SDS011;46042;49.444;6.862;2022-11-24T10:47:25;11.98;;;2.92;;
60169;SDS011;46042;49.444;6.862;2022-11-24T10:50:03;18.33;;;3.13;;
60169;SDS011;46042;49.444;6.862;2022-11-24T10:52:40;18.80;;;3.60;;
60169;SDS011;46042;49.444;6.862;2022-11-24T10:55:09;18.20;;;3.38;;
60169;SDS011;46042;49.444;6.862;2022-11-24T10:57:37;14.95;;;4.00;;
60169;SDS011;46042;49.444;6.862;2022-11-24T11:02:43;15.25;;;3.25;;
60169;SDS011;46042;49.444;6.862;2022-11-24T11:08:19;14.00;;;3.55;;
60169;SDS011;46042;49.444;6.862;2022-11-24T11:10:47;20.13;;;4.10;;
60169;SDS011;46042;49.444;6.862;2022-11-24T11:13:34;14.73;;;3.42;;
60169;SDS011;46042;49.444;6.862;2022-11-24T11:16:00;17.38;;;4.45;;
60169;SDS011;46042;49.444;6.862;2022-11-24T11:18:48;17.67;;;3.70;;
60169;SDS011;46042;49.444;6.862;2022-11-24T11:21:32;18.08;;;4.20;;
60169;SDS011;46042;49.444;6.862;2022-11-24T11:23:59;21.10;;;2.80;;
60169;SDS011;46042;49.444;6.862;2022-11-24T11:31:59;16.60;;;2.90;;
60169;SDS011;46042;49.444;6.862;2022-11-24T11:35:01;12.60;;;2.53;;
60169;SDS011;46042;49.444;6.862;2022-11-24T11:37:27;14.60;;;2.75;;
60169;SDS011;46042;49.444;6.862;2022-11-24T11:39:58;20.60;;;4.95;;
60169;SDS011;46042;49.444;6.862;2022-11-24T11:45:30;12.40;;;2.83;;
60169;SDS011;46042;49.444;6.862;2022-11-24T11:50:38;20.83;;;3.83;;
60169;SDS011;46042;49.444;6.862;2022-11-24T11:53:49;24.95;;;3.40;;
60169;SDS011;46042;49.444;6.862;2022-11-24T11:56:24;8.63;;;2.45;;
60169;SDS011;46042;49.444;6.862;2022-11-24T12:02:09;15.60;;;2.53;;
60169;SDS011;46042;49.444;6.862;2022-11-24T12:04:41;15.32;;;2.78;;
60169;SDS011;46042;49.444;6.862;2022-11-24T12:10:31;14.50;;;2.65;;
60169;SDS011;46042;49.444;6.862;2022-11-24T12:13:23;14.98;;;3.10;;
60169;SDS011;46042;49.444;6.862;2022-11-24T12:16:06;20.17;;;3.92;;
60169;SDS011;46042;49.444;6.862;2022-11-24T12:21:28;10.65;;;3.30;;
60169;SDS011;46042;49.444;6.862;2022-11-24T12:29:44;12.10;;;2.80;;
60169;SDS011;46042;49.444;6.862;2022-11-24T12:38:09;16.02;;;2.88;;
60169;SDS011;46042;49.444;6.862;2022-11-24T12:43:50;12.43;;;2.75;;
60169;SDS011;46042;49.444;6.862;2022-11-24T12:51:36;15.15;;;2.53;;
60169;SDS011;46042;49.444;6.862;2022-11-24T12:54:11;18.58;;;3.20;;
60169;SDS011;46042;49.444;6.862;2022-11-24T12:56:41;11.30;;;2.67;;
60169;SDS011;46042;49.444;6.862;2022-11-24T12:59:23;17.17;;;3.47;;
60169;SDS011;46042;49.444;6.862;2022-11-24T13:02:11;16.67;;;3.33;;
60169;SDS011;46042;49.444;6.862;2022-11-24T13:07:38;18.40;;;3.45;;
60169;SDS011;46042;49.444;6.862;2022-11-24T13:13:12;14.68;;;6.25;;
60169;SDS011;46042;49.444;6.862;2022-11-24T13:16:05;14.98;;;5.70;;
60169;SDS011;46042;49.444;6.862;2022-11-24T13:18:59;18.00;;;3.10;;
60169;SDS011;46042;49.444;6.862;2022-11-24T13:24:05;11.95;;;3.00;;
60169;SDS011;46042;49.444;6.862;2022-11-24T13:26:48;19.38;;;3.28;;
60169;SDS011;46042;49.444;6.862;2022-11-24T13:31:50;10.45;;;3.50;;
60169;SDS011;46042;49.444;6.862;2022-11-24T13:37:19;11.18;;;2.83;;
60169;SDS011;46042;49.444;6.862;2022-11-24T14:01:00;15.90;;;3.35;;
60169;SDS011;46042;49.444;6.862;2022-11-24T14:03:28;9.73;;;2.35;;
60169;SDS011;46042;49.444;6.862;2022-11-24T14:05:58;11.30;;;2.67;;
60169;SDS011;46042;49.444;6.862;2022-11-24T14:08:31;15.25;;;3.38;;
60169;SDS011;46042;49.444;6.862;2022-11-24T14:11:01;10.40;;;2.53;;
60169;SDS011;46042;49.444;6.862;2022-11-24T14:13:35;13.00;;;3.53;;
60169;SDS011;46042;49.444;6.862;2022-11-24T14:18:35;17.35;;;3.60;;
60169;SDS011;46042;49.444;6.862;2022-11-24T14:26:47;13.82;;;2.50;;
60169;SDS011;46042;49.444;6.862;2022-11-24T14:29:19;18.38;;;2.97;;
60169;SDS011;46042;49.444;6.862;2022-11-24T14:31:57;18.67;;;4.47;;
60169;SDS011;46042;49.444;6.862;2022-11-24T14:34:26;16.35;;;3.33;;
60169;SDS011;46042;49.444;6.862;2022-11-24T14:36:55;19.73;;;2.90;;
60169;SDS011;46042;49.444;6.862;2022-11-24T14:39:23;15.73;;;5.32;;
60169;SDS011;46042;49.444;6.862;2022-11-24T14:41:56;17.02;;;4.93;;
60169;SDS011;46042;49.444;6.862;2022-11-24T14:44:29;25.10;;;8.60;;
60169;SDS011;46042;49.444;6.862;2022-11-24T14:47:04;29.95;;;9.55;;
60169;SDS011;46042;49.444;6.862;2022-11-24T14:49:33;17.00;;;6.90;;
60169;SDS011;46042;49.444;6.862;2022-11-24T14:52:08;20.98;;;7.03;;
60169;SDS011;46042;49.444;6.862;2022-11-24T14:57:48;17.67;;;4.22;;
60169;SDS011;46042;49.444;6.862;2022-11-24T15:02:54;11.43;;;3.78;;
60169;SDS011;46042;49.444;6.862;2022-11-24T15:08:43;20.27;;;8.82;;
60169;SDS011;46042;49.444;6.862;2022-11-24T15:11:12;12.10;;;3.72;;
60169;SDS011;46042;49.444;6.862;2022-11-24T15:13:39;15.02;;;5.90;;
60169;SDS011;46042;49.444;6.862;2022-11-24T15:16:17;19.77;;;9.63;;
60169;SDS011;46042;49.444;6.862;2022-11-24T15:18:46;20.20;;;6.30;;
60169;SDS011;46042;49.444;6.862;2022-11-24T15:21:14;14.95;;;5.32;;
60169;SDS011;46042;49.444;6.862;2022-11-24T15:24:02;14.30;;;5.87;;
60169;SDS011;46042;49.444;6.862;2022-11-24T15:26:43;14.18;;;5.55;;
60169;SDS011;46042;49.444;6.862;2022-11-24T15:29:10;14.07;;;5.20;;
60169;SDS011;46042;49.444;6.862;2022-11-24T15:31:38;20.15;;;5.43;;
60169;SDS011;46042;49.444;6.862;2022-11-24T15:34:06;16.58;;;6.45;;
60169;SDS011;46042;49.444;6.862;2022-11-24T15:36:37;17.25;;;5.60;;
60169;SDS011;46042;49.444;6.862;2022-11-24T15:39:04;25.35;;;9.60;;
60169;SDS011;46042;49.444;6.862;2022-11-24T15:41:31;20.08;;;7.78;;
60169;SDS011;46042;49.444;6.862;2022-11-24T15:43:58;18.98;;;5.60;;
60169;SDS011;46042;49.444;6.862;2022-11-24T15:46:26;13.98;;;4.72;;
60169;SDS011;46042;49.444;6.862;2022-11-24T15:49:08;8.68;;;3.22;;
60169;SDS011;46042;49.444;6.862;2022-11-24T15:51:34;10.13;;;3.88;;
60169;SDS011;46042;49.444;6.862;2022-11-24T15:54:03;15.10;;;3.13;;
60169;SDS011;46042;49.444;6.862;2022-11-24T15:56:35;10.77;;;3.08;;
60169;SDS011;46042;49.444;6.862;2022-11-24T15:59:03;14.35;;;3.75;;
60169;SDS011;46042;49.444;6.862;2022-11-24T16:01:30;12.32;;;3.35;;
60169;SDS011;46042;49.444;6.862;2022-11-24T16:03:58;10.82;;;3.55;;
60169;SDS011;46042;49.444;6.862;2022-11-24T16:06:25;9.07;;;2.97;;
60169;SDS011;46042;49.444;6.862;2022-11-24T16:08:52;18.15;;;2.80;;
60169;SDS011;46042;49.444;6.862;2022-11-24T16:11:20;14.20;;;3.03;;
60169;SDS011;46042;49.444;6.862;2022-11-24T16:13:47;8.80;;;2.85;;
60169;SDS011;46042;49.444;6.862;2022-11-24T16:18:46;10.32;;;2.70;;
60169;SDS011;46042;49.444;6.862;2022-11-24T16:21:12;10.30;;;3.03;;
60169;SDS011;46042;49.444;6.862;2022-11-24T16:23:39;12.00;;;3.45;;
60169;SDS011;46042;49.444;6.862;2022-11-24T16:26:05;10.63;;;3.75;;
60169;SDS011;46042;49.444;6.862;2022-11-24T16:28:32;17.00;;;5.03;;
60169;SDS011;46042;49.444;6.862;2022-11-24T16:30:59;20.27;;;5.35;;
60169;SDS011;46042;49.444;6.862;2022-11-24T16:33:27;26.25;;;8.63;;
60169;SDS011;46042;49.444;6.862;2022-11-24T16:35:54;19.67;;;7.95;;
60169;SDS011;46042;49.444;6.862;2022-11-24T16:38:21;17.90;;;7.20;;
60169;SDS011;46042;49.444;6.862;2022-11-24T16:40:51;17.05;;;7.38;;
60169;SDS011;46042;49.444;6.862;2022-11-24T16:43:19;22.08;;;9.48;;
60169;SDS011;46042;49.444;6.862;2022-11-24T16:45:46;28.88;;;13.13;;
60169;SDS011;46042;49.444;6.862;2022-11-24T16:48:38;20.08;;;6.93;;
60169;SDS011;46042;49.444;6.862;2022-11-24T16:51:06;24.73;;;7.13;;
60169;SDS011;46042;49.444;6.862;2022-11-24T16:53:33;18.65;;;5.93;;
60169;SDS011;46042;49.444;6.862;2022-11-24T16:56:00;15.45;;;5.05;;
60169;SDS011;46042;49.444;6.862;2022-11-24T16:58:27;13.65;;;5.53;;
60169;SDS011;46042;49.444;6.862;2022-11-24T17:00:54;18.95;;;8.13;;
60169;SDS011;46042;49.444;6.862;2022-11-24T17:03:29;15.55;;;6.05;;
60169;SDS011;46042;49.444;6.862;2022-11-24T17:05:59;13.13;;;3.67;;
60169;SDS011;46042;49.444;6.862;2022-11-24T17:08:28;13.30;;;4.20;;
60169;SDS011;46042;49.444;6.862;2022-11-24T17:10:56;13.75;;;3.33;;
60169;SDS011;46042;49.444;6.862;2022-11-24T17:13:23;11.27;;;4.20;;